Time;durP1;ratioP1;P1;durP2;ratioP2;P2;SDS_P1;SDS_P2;PMS_P1;PMS_P2;Temp;Humidity;BMP_temperature;BMP_pressure;BME280_temperature;BME280_humidity;BME280_pressure;Samples;Min_cycle;Max_cycle;Signal;HPM_P1;HPM_P2
2022/06/26 00:00:30;;;;;;;24.67;19.73;;;;;;;23.63;100.00;101059.94;7392671;19;20022;-44
2022/06/26 00:02:58;;;;;;;22.17;19.08;;;;;;;23.55;100.00;101066.03;7393321;19;20022;-44
2022/06/26 00:05:27;;;;;;;27.70;20.50;;;;;;;23.45;100.00;101066.06;7391630;19;20082;-44
2022/06/26 00:07:56;;;;;;;21.63;19.23;;;;;;;23.37;100.00;101063.28;7393228;19;20011;-45
2022/06/26 00:10:25;;;;;;;25.00;21.77;;;;;;;23.26;100.00;101056.28;7393327;19;20010;-43
2022/06/26 00:12:54;;;;;;;22.33;19.67;;;;;;;23.26;100.00;101056.28;7393040;19;20014;-44
2022/06/26 00:15:23;;;;;;;24.25;21.15;;;;;;;23.23;100.00;101051.22;7388813;19;20019;-44
2022/06/26 00:17:55;;;;;;;21.63;19.30;;;;;;;23.11;100.00;101053.22;7393823;19;20010;-44
2022/06/26 00:20:24;;;;;;;20.60;18.27;;;;;;;22.98;100.00;101060.66;7394131;19;20014;-45
2022/06/26 00:22:53;;;;;;;28.13;20.85;;;;;;;22.67;100.00;101068.84;7395616;19;20011;-43
2022/06/26 00:25:22;;;;;;;25.38;20.30;;;;;;;22.64;100.00;101077.16;7392263;19;20021;-44
2022/06/26 00:27:51;;;;;;;22.83;20.13;;;;;;;22.51;100.00;101071.22;7393137;19;20007;-43
2022/06/26 00:30:20;;;;;;;30.40;24.40;;;;;;;22.45;100.00;101072.63;7391414;19;20024;-44
2022/06/26 00:32:50;;;;;;;29.13;24.52;;;;;;;22.52;100.00;101075.59;7392543;19;20026;-43
2022/06/26 00:35:21;;;;;;;29.63;24.88;;;;;;;22.58;100.00;101085.72;7391159;19;20048;-43
2022/06/26 00:37:50;;;;;;;28.02;23.25;;;;;;;22.59;100.00;101095.41;7400922;19;20014;-43
2022/06/26 00:40:19;;;;;;;33.78;26.55;;;;;;;22.64;100.00;101090.50;7399305;19;20007;-44
2022/06/26 00:42:49;;;;;;;33.75;27.08;;;;;;;22.61;100.00;101091.63;7400659;19;20010;-43
2022/06/26 00:45:18;;;;;;;31.60;24.77;;;;;;;22.41;100.00;101096.13;7396946;19;20022;-44
2022/06/26 00:47:47;;;;;;;28.05;24.75;;;;;;;22.37;100.00;101086.69;7400774;19;20025;-43
2022/06/26 00:50:16;;;;;;;22.70;18.42;;;;;;;22.34;100.00;101078.09;7398811;19;20070;-44
2022/06/26 00:52:47;;;;;;;29.27;22.20;;;;;;;22.29;100.00;101082.03;7400233;19;20010;-44
2022/06/26 00:55:16;;;;;;;37.55;27.30;;;;;;;22.13;100.00;101087.88;7398586;19;20015;-47
2022/06/26 00:57:45;;;;;;;37.30;28.17;;;;;;;22.30;100.00;101097.03;7389444;19;20366;-46
2022/06/26 01:00:16;;;;;;;39.08;28.42;;;;;;;21.78;100.00;101094.50;7395048;19;20021;-46
2022/06/26 01:02:45;;;;;;;43.50;32.65;;;;;;;21.97;100.00;101086.72;7392241;19;20043;-45
2022/06/26 01:05:14;;;;;;;45.05;32.78;;;;;;;22.07;100.00;101093.75;7390384;19;20424;-43
2022/06/26 01:07:43;;;;;;;45.13;32.15;;;;;;;22.21;100.00;101094.34;7392542;19;20026;-49
2022/06/26 01:10:14;;;;;;;43.47;33.42;;;;;;;22.29;100.00;101084.69;7391444;19;20015;-46
2022/06/26 01:12:44;;;;;;;37.63;30.55;;;;;;;22.43;100.00;101093.31;7391997;19;20015;-47
2022/06/26 01:15:14;;;;;;;42.05;32.58;;;;;;;22.74;100.00;101096.69;7389742;19;20014;-49
2022/06/26 01:17:43;;;;;;;40.15;30.02;;;;;;;22.45;100.00;101086.84;7389281;19;20025;-46
2022/06/26 01:20:16;;;;;;;40.05;29.90;;;;;;;22.42;100.00;101097.81;7389142;19;20021;-45
2022/06/26 01:22:59;;;;;;;44.53;32.17;;;;;;;22.51;100.00;101100.59;7392029;19;20029;-46
2022/06/26 01:25:28;;;;;;;38.75;30.08;;;;;;;22.55;100.00;101104.69;7388525;19;20082;-46
2022/06/26 01:27:57;;;;;;;43.92;32.60;;;;;;;22.61;100.00;101112.16;7397573;19;20014;-45
2022/06/26 01:30:26;;;;;;;49.83;34.53;;;;;;;22.60;100.00;101113.16;7397575;19;20020;-46
2022/06/26 01:32:55;;;;;;;52.15;35.22;;;;;;;22.72;100.00;101116.50;7399509;19;20018;-45
2022/06/26 01:35:24;;;;;;;47.65;35.17;;;;;;;22.70;100.00;101119.34;7395056;19;20021;-45
2022/06/26 01:38:13;;;;;;;41.65;32.58;;;;;;;22.23;100.00;101121.75;7395143;19;20018;-48
2022/06/26 01:40:45;;;;;;;51.67;36.63;;;;;;;22.39;100.00;101114.09;7399182;19;20022;-46
2022/06/26 01:43:17;;;;;;;52.70;36.67;;;;;;;22.20;100.00;101114.88;7399661;19;20015;-47
2022/06/26 01:45:49;;;;;;;54.03;38.30;;;;;;;22.58;100.00;101112.41;7399966;19;20018;-47
2022/06/26 01:48:20;;;;;;;54.60;37.70;;;;;;;22.48;100.00;101122.25;7400733;19;20010;-46
2022/06/26 01:50:51;;;;;;;50.67;36.03;;;;;;;22.39;100.00;101122.09;7400716;19;20044;-46
2022/06/26 01:53:23;;;;;;;47.88;34.90;;;;;;;22.04;100.00;101127.91;7401296;19;20010;-46
2022/06/26 01:55:52;;;;;;;49.60;36.17;;;;;;;22.15;100.00;101118.91;7399424;19;20017;-46
2022/06/26 01:58:27;;;;;;;47.22;34.95;;;;;;;21.92;100.00;101119.13;7397385;19;20021;-47
2022/06/26 02:00:56;;;;;;;49.40;37.08;;;;;;;22.21;100.00;101121.91;7399212;19;20025;-49
2022/06/26 02:03:29;;;;;;;48.17;37.13;;;;;;;22.49;100.00;101122.13;7397439;19;20331;-49
2022/06/26 02:05:59;;;;;;;47.60;37.33;;;;;;;22.24;100.00;101116.28;7398345;19;20423;-48
2022/06/26 02:08:30;;;;;;;44.08;34.10;;;;;;;22.02;100.00;101122.69;7397381;19;20018;-45
2022/06/26 02:13:42;;;;;;;68.37;49.20;;;;;;;21.84;100.00;101113.63;7396497;19;20014;-46
2022/06/26 02:16:15;;;;;;;120.22;91.28;;;;;;;22.12;100.00;101112.03;7396477;19;20257;-45
2022/06/26 02:18:48;;;;;;;197.10;139.15;;;;;;;22.04;100.00;101112.72;7396001;19;20021;-48
2022/06/26 02:21:19;;;;;;;255.18;176.32;;;;;;;22.16;100.00;101120.63;7397113;19;20014;-48
2022/06/26 02:23:53;;;;;;;201.02;145.57;;;;;;;22.25;100.00;101111.78;7395269;19;20490;-46
2022/06/26 02:26:23;;;;;;;125.80;92.97;;;;;;;21.82;100.00;101110.25;7395699;19;20014;-46
2022/06/26 02:28:57;;;;;;;103.22;77.32;;;;;;;22.12;100.00;101120.91;7396072;19;20081;-46
2022/06/26 02:31:26;;;;;;;59.13;45.72;;;;;;;21.93;100.00;101118.16;7396476;19;20017;-47
2022/06/26 02:33:55;;;;;;;72.75;53.78;;;;;;;22.21;100.00;101110.34;7394219;19;20020;-45
2022/06/26 02:36:24;;;;;;;68.20;49.40;;;;;;;22.22;100.00;101104.91;7395993;19;20014;-47
2022/06/26 02:38:55;;;;;;;46.75;37.47;;;;;;;21.91;100.00;101101.44;7393791;19;20017;-45
2022/06/26 02:41:24;;;;;;;38.10;31.98;;;;;;;21.98;100.00;101094.59;7396491;19;20014;-47
2022/06/26 02:43:53;;;;;;;32.83;27.42;;;;;;;21.92;100.00;101097.78;7394144;19;20086;-46
2022/06/26 02:46:22;;;;;;;34.65;27.45;;;;;;;21.64;100.00;101094.03;7396536;19;20014;-46
2022/06/26 02:48:52;;;;;;;29.58;23.95;;;;;;;21.82;100.00;101083.56;7394362;19;20010;-46
2022/06/26 02:51:21;;;;;;;32.90;26.60;;;;;;;21.93;100.00;101094.13;7396235;19;20037;-45
2022/06/26 02:53:50;;;;;;;27.15;24.17;;;;;;;21.71;100.00;101085.34;7394983;19;20022;-46
2022/06/26 02:56:22;;;;;;;31.70;26.10;;;;;;;22.06;100.00;101081.38;7394844;19;20472;-48
2022/06/26 02:58:51;;;;;;;28.92;24.75;;;;;;;21.84;100.00;101097.63;7394146;19;20032;-46
2022/06/26 03:01:20;;;;;;;29.58;23.70;;;;;;;21.63;100.00;101098.50;7394997;19;20477;-47
2022/06/26 03:03:49;;;;;;;27.60;24.60;;;;;;;20.87;100.00;101109.38;7393515;19;20011;-45
2022/06/26 03:06:18;;;;;;;27.15;23.17;;;;;;;20.96;100.00;101113.09;7394729;19;20018;-46
2022/06/26 03:08:47;;;;;;;25.90;22.75;;;;;;;21.52;100.00;101101.25;7395144;19;20480;-45
2022/06/26 03:11:16;;;;;;;28.33;25.10;;;;;;;21.60;100.00;101115.63;7394176;19;20021;-46
2022/06/26 03:13:47;;;;;;;31.85;26.80;;;;;;;21.67;100.00;101121.28;7393603;19;20018;-46
2022/06/26 03:16:16;;;;;;;27.50;23.83;;;;;;;21.51;100.00;101120.88;7393520;19;20214;-45
2022/06/26 03:18:45;;;;;;;31.38;26.42;;;;;;;21.79;100.00;101122.03;7392859;19;20491;-45
2022/06/26 03:21:14;;;;;;;32.67;26.70;;;;;;;21.38;100.00;101132.59;7394452;19;20034;-45
2022/06/26 03:26:27;;;;;;;34.10;27.35;;;;;;;21.50;100.00;101145.84;7393561;19;20022;-45
2022/06/26 03:28:59;;;;;;;36.17;29.83;;;;;;;21.89;100.00;101146.94;7394957;19;20038;-45
2022/06/26 03:31:29;;;;;;;36.38;28.13;;;;;;;21.36;100.00;101153.22;7393017;19;20016;-44
2022/06/26 03:33:58;;;;;;;32.78;26.90;;;;;;;21.37;100.00;101156.72;7392435;19;20413;-45
2022/06/26 03:36:28;;;;;;;33.63;27.92;;;;;;;21.73;100.00;101163.41;7392624;19;20078;-44
2022/06/26 03:38:59;;;;;;;41.25;31.33;;;;;;;21.92;100.00;101157.34;7392262;19;20030;-44
2022/06/26 03:41:31;;;;;;;;;;;;;;;21.95;100.00;101167.75;7393252;19;20029;-44
2022/06/26 03:44:03;;;;;;;49.92;33.38;;;;;;;21.98;100.00;101161.31;7392262;19;19921;-44
2022/06/26 03:46:32;;;;;;;33.95;27.67;;;;;;;21.90;100.00;101169.94;7392751;19;20022;-44
2022/06/26 03:49:02;;;;;;;36.03;28.40;;;;;;;21.85;100.00;101172.19;7392436;19;20018;-44
2022/06/26 03:51:32;;;;;;;36.53;28.63;;;;;;;21.04;100.00;101170.06;7392854;19;20337;-44
2022/06/26 03:54:01;;;;;;;34.72;27.48;;;;;;;21.21;100.00;101178.50;7391753;19;20022;-44
2022/06/26 03:56:31;;;;;;;38.05;27.75;;;;;;;21.73;100.00;101183.91;7392016;19;20031;-48
2022/06/26 03:59:03;;;;;;;39.38;28.55;;;;;;;21.25;100.00;101185.25;7391107;19;20019;-44
2022/06/26 04:01:32;;;;;;;40.05;30.17;;;;;;;21.54;100.00;101184.66;7392277;19;20085;-44
2022/06/26 04:04:02;;;;;;;37.42;27.77;;;;;;;21.11;100.00;101196.22;7392198;19;20442;-44
2022/06/26 04:06:32;;;;;;;38.72;28.63;;;;;;;21.41;100.00;101198.16;7392066;19;20025;-48
2022/06/26 04:09:08;;;;;;;34.33;27.15;;;;;;;20.98;100.00;101191.06;7391922;19;20014;-45
2022/06/26 04:11:37;;;;;;;38.35;27.83;;;;;;;21.27;100.00;101201.97;7392209;19;20018;-46
2022/06/26 04:14:09;;;;;;;38.33;26.67;;;;;;;20.50;100.00;101206.41;7391135;19;20018;-45
2022/06/26 04:16:38;;;;;;;32.50;23.83;;;;;;;20.73;100.00;101220.56;7391305;19;20011;-45
2022/06/26 04:19:07;;;;;;;31.13;23.55;;;;;;;21.30;100.00;101224.84;7390506;19;20025;-47
2022/06/26 04:21:38;;;;;;;39.67;27.55;;;;;;;21.60;100.00;101232.97;7391872;19;20014;-45
2022/06/26 04:24:12;;;;;;;35.73;26.43;;;;;;;21.26;100.00;101234.91;7390951;19;20018;-46
2022/06/26 04:26:41;;;;;;;34.65;24.65;;;;;;;21.33;100.00;101236.09;7393170;19;20352;-44
2022/06/26 04:29:12;;;;;;;36.95;26.05;;;;;;;20.99;100.00;101236.25;7392904;19;20015;-45
2022/06/26 04:31:41;;;;;;;37.53;25.40;;;;;;;21.04;100.00;101231.38;7394304;19;20352;-45
2022/06/26 04:34:12;;;;;;;31.48;24.05;;;;;;;20.41;100.00;101223.09;7393316;19;20011;-46
2022/06/26 04:36:41;;;;;;;34.72;24.77;;;;;;;20.46;100.00;101226.25;7395946;19;20038;-45
2022/06/26 04:39:18;;;;;;;35.30;25.88;;;;;;;20.90;100.00;101235.19;7396607;19;20025;-45
2022/06/26 04:41:47;;;;;;;32.28;22.77;;;;;;;21.02;100.00;101225.31;7394892;19;20028;-45
2022/06/26 04:44:19;;;;;;;33.85;24.33;;;;;;;21.15;100.00;101227.81;7393019;19;20014;-44
2022/06/26 04:46:55;;;;;;;32.55;24.67;;;;;;;20.73;100.00;101219.69;7393747;19;20471;-45
2022/06/26 04:49:29;;;;;;;33.25;23.65;;;;;;;20.86;100.00;101216.88;7391570;19;20014;-45
2022/06/26 04:51:58;;;;;;;36.20;25.08;;;;;;;21.18;100.00;101222.22;7392842;19;20021;-44
2022/06/26 04:54:41;;;;;;;35.97;25.88;;;;;;;21.62;100.00;101226.66;7391913;19;20019;-45
2022/06/26 04:57:10;;;;;;;37.58;26.42;;;;;;;21.77;100.00;101226.19;7394929;19;20022;-49
2022/06/26 04:59:43;;;;;;;35.65;26.83;;;;;;;21.78;100.00;101230.56;7393689;19;20015;-45
2022/06/26 05:02:13;;;;;;;39.28;28.13;;;;;;;21.63;100.00;101250.53;7405220;19;20022;-45
2022/06/26 05:04:59;;;;;;;39.60;28.83;;;;;;;20.55;100.00;101254.81;7408284;19;20041;-45
2022/06/26 05:07:50;;;;;;;33.40;25.42;;;;;;;20.58;100.00;101267.03;7407996;19;20349;-45
2022/06/26 05:10:20;;;;;;;41.15;27.52;;;;;;;21.15;100.00;101275.78;7405046;19;20344;-45
2022/06/26 05:12:53;;;;;;;;;;;;;;;21.07;100.00;101280.91;7406263;19;20061;-45
2022/06/26 05:15:54;;;;;;;31.75;24.08;;;;;;;20.56;100.00;101277.81;7405109;19;19907;-44
2022/06/26 05:18:23;;;;;;;36.38;25.95;;;;;;;20.68;100.00;101270.69;7402340;19;20090;-45
2022/06/26 05:20:52;;;;;;;32.78;24.27;;;;;;;20.33;100.00;101278.75;7406436;19;20019;-45
2022/06/26 05:23:21;;;;;;;33.72;24.20;;;;;;;20.57;100.00;101271.50;7403962;19;20014;-46
2022/06/26 05:26:07;;;;;;;34.05;23.30;;;;;;;20.20;100.00;101278.88;7404685;19;20006;-47
2022/06/26 05:28:36;;;;;;;35.13;24.15;;;;;;;20.20;100.00;101285.06;7404684;19;20022;-44
2022/06/26 05:31:07;;;;;;;36.45;24.40;;;;;;;20.91;100.00;101284.81;7405960;19;20019;-47
2022/06/26 05:33:40;;;;;;;31.00;23.27;;;;;;;20.48;100.00;101277.56;7403431;19;20011;-44
2022/06/26 05:36:09;;;;;;;36.55;23.60;;;;;;;20.38;100.00;101269.44;7403999;19;20007;-46
2022/06/26 05:38:39;;;;;;;34.08;24.65;;;;;;;20.98;100.00;101287.00;7401230;19;20060;-46
2022/06/26 05:41:09;;;;;;;37.85;26.10;;;;;;;21.25;100.00;101300.72;7403980;19;20015;-48
2022/06/26 05:43:41;;;;;;;39.90;25.20;;;;;;;21.26;100.00;101306.88;7402742;19;20011;-44
2022/06/26 05:46:15;;;;;;;40.10;26.98;;;;;;;21.36;100.00;101307.84;7403887;19;20023;-44
2022/06/26 05:48:56;;;;;;;38.42;27.42;;;;;;;21.01;100.00;101300.06;7405001;19;20049;-45
2022/06/26 05:51:52;;;;;;;37.40;26.63;;;;;;;21.14;100.00;101310.56;7402933;19;20370;-47
2022/06/26 05:54:31;;;;;;;35.78;25.88;;;;;;;20.39;100.00;101299.59;7403705;19;20056;-45
2022/06/26 05:57:22;;;;;;;34.10;24.67;;;;;;;20.20;100.00;101301.03;7402844;19;20022;-44
2022/06/26 06:00:09;;;;;;;32.50;24.02;;;;;;;20.25;100.00;101310.47;7401839;19;20379;-44
2022/06/26 06:02:50;;;;;;;33.22;24.48;;;;;;;21.05;100.00;101315.66;7405684;19;20018;-44
2022/06/26 06:05:23;;;;;;;30.52;23.10;;;;;;;20.83;100.00;101310.38;7403597;19;20018;-44
2022/06/26 06:07:52;;;;;;;30.38;21.83;;;;;;;21.05;100.00;101322.81;7402799;19;20015;-44
2022/06/26 06:10:21;;;;;;;31.67;23.38;;;;;;;21.40;100.00;101325.25;7403789;19;20014;-44
2022/06/26 06:12:52;;;;;;;30.15;23.40;;;;;;;20.91;100.00;101347.91;7397342;19;20034;-44
2022/06/26 06:15:21;;;;;;;27.75;21.23;;;;;;;20.42;100.00;101333.94;7393454;19;20011;-44
2022/06/26 06:17:56;;;;;;;27.17;21.95;;;;;;;20.78;100.00;101337.38;7395212;19;20341;-44
2022/06/26 06:20:26;;;;;;;30.35;22.00;;;;;;;20.92;100.00;101338.94;7394503;19;20027;-47
2022/06/26 06:22:57;;;;;;;28.05;21.73;;;;;;;20.94;100.00;101345.00;7395472;19;20066;-44
2022/06/26 06:25:26;;;;;;;26.88;21.98;;;;;;;20.63;100.00;101343.88;7393186;19;20018;-45
2022/06/26 06:27:55;;;;;;;28.13;22.05;;;;;;;21.09;100.00;101356.25;7395289;19;20426;-45
2022/06/26 06:30:30;;;;;;;27.65;21.80;;;;;;;20.64;100.00;101359.72;7394718;19;20011;-44
2022/06/26 06:33:02;;;;;;;27.98;21.08;;;;;;;20.51;100.00;101359.00;7394742;19;20030;-45
2022/06/26 06:35:36;;;;;;;27.13;20.67;;;;;;;21.02;100.00;101363.00;7395580;19;20022;-48
2022/06/26 06:38:06;;;;;;;22.98;20.42;;;;;;;20.92;100.00;101368.25;7394105;19;20030;-45
2022/06/26 06:40:35;;;;;;;23.88;19.27;;;;;;;21.36;100.00;101369.16;7394322;19;20030;-47
2022/06/26 06:43:05;;;;;;;22.42;19.35;;;;;;;21.59;100.00;101382.44;7394784;19;20002;-48
2022/06/26 06:45:54;;;;;;;24.00;18.75;;;;;;;21.41;100.00;101376.78;7395609;19;20030;-46
2022/06/26 06:48:28;;;;;;;23.02;18.08;;;;;;;21.07;100.00;101375.00;7393659;19;20520;-45
2022/06/26 06:51:15;;;;;;;18.80;16.02;;;;;;;21.29;100.00;101380.44;7396886;19;20015;-46
2022/06/26 06:53:45;;;;;;;22.20;17.05;;;;;;;21.52;100.00;101376.78;7394143;19;20022;-46
2022/06/26 06:56:14;;;;;;;22.17;17.58;;;;;;;21.26;100.00;101362.84;7395437;19;20034;-45
2022/06/26 06:58:43;;;;;;;21.73;17.77;;;;;;;20.96;100.00;101374.16;7392120;19;20484;-44
2022/06/26 07:01:13;;;;;;;22.08;17.85;;;;;;;21.36;100.00;101374.50;7394462;19;20015;-45
2022/06/26 07:03:44;;;;;;;21.30;17.35;;;;;;;21.48;100.00;101385.97;7393292;19;20010;-44
2022/06/26 07:06:13;;;;;;;19.47;16.47;;;;;;;21.85;100.00;101382.97;7395559;19;20018;-44
2022/06/26 07:08:42;;;;;;;20.33;15.95;;;;;;;21.64;100.00;101379.41;7398772;19;20007;-44
2022/06/26 07:11:11;;;;;;;17.10;15.25;;;;;;;21.82;100.00;101361.88;7399130;19;20024;-47
2022/06/26 07:13:41;;;;;;;17.85;14.88;;;;;;;22.23;100.00;101364.69;7399646;19;20074;-44
2022/06/26 07:16:10;;;;;;;15.98;13.48;;;;;;;21.72;100.00;101380.47;7400894;19;20348;-44
2022/06/26 07:18:39;;;;;;;13.70;11.40;;;;;;;22.01;100.00;101382.53;7397712;19;20026;-46
2022/06/26 07:21:11;;;;;;;15.10;11.60;;;;;;;22.20;100.00;101394.31;7397934;19;20006;-45
2022/06/26 07:23:40;;;;;;;15.75;12.02;;;;;;;22.38;100.00;101394.59;7394365;19;20033;-47
2022/06/26 07:26:31;;;;;;;15.10;11.20;;;;;;;22.03;100.00;101387.72;7395352;19;20018;-45
2022/06/26 07:29:00;;;;;;;13.13;10.05;;;;;;;21.92;100.00;101389.47;7392750;19;20040;-48
2022/06/26 07:31:41;;;;;;;12.20;10.80;;;;;;;22.27;100.00;101396.31;7394536;19;20010;-47
2022/06/26 07:34:16;;;;;;;13.10;9.52;;;;;;;22.20;100.00;101413.84;7393287;19;20348;-44
2022/06/26 07:36:50;;;;;;;11.23;9.98;;;;;;;22.26;100.00;101415.16;7393515;19;20018;-47
2022/06/26 07:39:21;;;;;;;10.40;9.30;;;;;;;21.95;100.00;101423.06;7391202;19;20011;-45
2022/06/26 07:41:51;;;;;;;11.88;8.07;;;;;;;22.45;100.00;101433.16;7392500;19;20014;-50
2022/06/26 07:44:21;;;;;;;9.40;6.30;;;;;;;22.05;100.00;101431.13;7392171;19;20022;-47
2022/06/26 07:46:50;;;;;;;10.45;6.90;;;;;;;22.10;100.00;101436.94;7392940;19;20037;-46
2022/06/26 07:49:33;;;;;;;;;;;;;;;22.53;100.00;101430.69;7392667;19;20492;-46
2022/06/26 07:52:07;;;;;;;9.90;5.65;;;;;;;21.94;100.00;101432.88;7393109;19;20347;-47
2022/06/26 07:54:36;;;;;;;9.45;5.97;;;;;;;22.70;100.00;101439.09;7392805;19;20019;-46
2022/06/26 07:57:05;;;;;;;7.88;5.97;;;;;;;22.87;100.00;101441.13;7392989;19;20021;-46
2022/06/26 07:59:34;;;;;;;9.30;5.78;;;;;;;23.00;100.00;101430.22;7391421;19;20025;-50
2022/06/26 08:02:03;;;;;;;6.78;5.65;;;;;;;23.14;100.00;101432.56;7393581;19;20498;-47
2022/06/26 08:04:32;;;;;;;9.98;6.15;;;;;;;22.80;98.44;101445.31;7392640;19;20022;-48
2022/06/26 08:07:01;;;;;;;9.32;5.60;;;;;;;22.37;100.00;101438.31;7393704;19;20010;-49
2022/06/26 08:09:32;;;;;;;7.22;5.10;;;;;;;22.86;100.00;101438.59;7392753;19;20044;-47
2022/06/26 08:12:01;;;;;;;9.50;5.85;;;;;;;22.36;100.00;101441.94;7394066;19;20014;-49
2022/06/26 08:14:30;;;;;;;7.28;5.47;;;;;;;22.90;98.33;101448.03;7392071;19;20756;-47
2022/06/26 08:16:59;;;;;;;11.27;5.10;;;;;;;22.95;99.81;101445.81;7393912;19;20363;-48
2022/06/26 08:19:28;;;;;;;7.65;4.53;;;;;;;22.79;97.43;101449.78;7392279;19;20014;-47
2022/06/26 08:22:03;;;;;;;7.85;4.82;;;;;;;22.90;100.00;101442.69;7393177;19;20068;-48
2022/06/26 08:24:36;;;;;;;7.10;5.38;;;;;;;23.39;100.00;101438.41;7392204;19;20018;-50
2022/06/26 08:27:05;;;;;;;7.95;4.95;;;;;;;23.49;99.32;101438.41;7394091;19;20015;-47
2022/06/26 08:29:34;;;;;;;6.13;4.47;;;;;;;23.79;96.67;101447.34;7392912;19;20021;-45
2022/06/26 08:32:03;;;;;;;6.97;3.90;;;;;;;23.16;91.80;101448.47;7393524;19;20010;-45
2022/06/26 08:34:32;;;;;;;7.00;4.50;;;;;;;23.03;92.47;101447.81;7392089;19;20029;-50
2022/06/26 08:37:01;;;;;;;5.78;4.65;;;;;;;23.15;94.28;101461.00;7391505;19;20014;-44
2022/06/26 08:39:34;;;;;;;5.20;4.10;;;;;;;23.18;98.14;101456.34;7391275;19;20014;-43
2022/06/26 08:42:08;;;;;;;7.97;4.60;;;;;;;23.34;91.66;101454.03;7393601;19;20014;-44
2022/06/26 08:44:42;;;;;;;8.70;4.80;;;;;;;22.58;93.51;101463.19;7391728;19;20014;-44
2022/06/26 08:47:12;;;;;;;6.38;4.18;;;;;;;22.82;94.59;101454.03;7393189;19;20018;-45
2022/06/26 08:49:43;;;;;;;7.03;4.90;;;;;;;22.92;94.56;101464.78;7393152;19;20348;-44
2022/06/26 08:52:14;;;;;;;7.40;4.80;;;;;;;23.19;99.37;101461.56;7393801;19;20019;-45
2022/06/26 08:54:44;;;;;;;8.33;5.40;;;;;;;23.45;93.51;101469.09;7391876;19;20025;-44
2022/06/26 08:57:17;;;;;;;8.25;4.95;;;;;;;23.70;93.00;101461.53;7392387;19;20029;-44
2022/06/26 08:59:46;;;;;;;8.70;5.57;;;;;;;23.65;95.87;101468.16;7389990;19;20801;-44
2022/06/26 09:02:15;;;;;;;8.35;5.50;;;;;;;23.32;97.83;101472.84;7392564;19;20006;-44
2022/06/26 09:04:44;;;;;;;7.22;5.53;;;;;;;23.35;92.59;101477.09;7390879;19;20018;-43
2022/06/26 09:07:13;;;;;;;6.03;4.85;;;;;;;23.05;92.27;101472.56;7392391;19;20119;-44
2022/06/26 09:09:42;;;;;;;7.25;4.75;;;;;;;23.10;94.74;101473.88;7391379;19;20011;-44
2022/06/26 09:12:11;;;;;;;6.25;4.10;;;;;;;23.53;92.62;101479.09;7392859;19;20013;-44
2022/06/26 09:14:43;;;;;;;5.63;3.83;;;;;;;23.54;91.17;101486.16;7390974;19;20017;-44
2022/06/26 09:17:12;;;;;;;7.55;4.70;;;;;;;23.91;90.57;101496.28;7392094;19;20636;-44
2022/06/26 09:19:43;;;;;;;7.95;4.55;;;;;;;23.85;89.43;101501.16;7391342;19;20010;-43
2022/06/26 09:22:15;;;;;;;7.22;5.07;;;;;;;23.69;88.20;101491.97;7391969;19;20015;-44
2022/06/26 09:24:56;;;;;;;7.18;5.10;;;;;;;23.57;93.52;101486.75;7390672;19;20015;-46
2022/06/26 09:27:26;;;;;;;6.38;5.00;;;;;;;23.48;92.74;101492.91;7392254;19;20021;-44
2022/06/26 09:29:58;;;;;;;7.75;5.38;;;;;;;22.97;97.48;101486.63;7391656;19;20012;-44
2022/06/26 09:32:28;;;;;;;7.13;4.95;;;;;;;23.36;94.52;101473.44;7391225;19;20030;-44
2022/06/26 09:34:57;;;;;;;7.57;6.22;;;;;;;23.58;95.13;101482.22;7391582;19;20019;-44
2022/06/26 09:37:26;;;;;;;9.00;5.25;;;;;;;23.39;91.94;101481.19;7390713;19;20394;-45
2022/06/26 09:40:03;;;;;;;8.85;5.28;;;;;;;23.03;95.93;101469.22;7389706;19;20018;-44
2022/06/26 09:42:35;;;;;;;8.93;5.07;;;;;;;23.60;98.07;101462.38;7391992;19;20014;-45
2022/06/26 09:45:11;;;;;;;5.63;4.75;;;;;;;23.77;92.20;101478.72;7389261;19;20025;-44
2022/06/26 09:47:42;;;;;;;7.38;4.95;;;;;;;23.82;88.52;101480.00;7394271;19;20462;-46
2022/06/26 09:50:12;;;;;;;7.20;5.10;;;;;;;23.95;93.48;101476.28;7398150;19;20019;-44
2022/06/26 09:52:41;;;;;;;10.02;4.72;;;;;;;23.33;87.93;101466.53;7399287;19;20014;-44
2022/06/26 09:55:11;;;;;;;9.85;4.28;;;;;;;23.67;85.87;101471.56;7397459;19;20010;-44
2022/06/26 09:57:40;;;;;;;7.25;4.20;;;;;;;23.40;85.21;101480.22;7399374;19;20026;-44
2022/06/26 10:00:13;;;;;;;6.20;4.18;;;;;;;23.23;88.98;101479.03;7398093;19;20018;-44
2022/06/26 10:08:11;;;;;;;9.40;4.47;;;;;;;23.92;85.76;101473.88;7397529;19;20026;-44
2022/06/26 10:10:40;;;;;;;6.25;3.83;;;;;;;23.66;77.89;101483.22;7397646;19;20129;-44
2022/06/26 10:13:10;;;;;;;8.38;4.18;;;;;;;23.58;79.89;101485.75;7398335;19;20010;-45
2022/06/26 10:15:50;;;;;;;6.78;4.30;;;;;;;23.84;81.93;101494.13;7398398;19;20079;-44
2022/06/26 10:18:39;;;;;;;6.15;5.00;;;;;;;23.12;85.75;101504.00;7396793;19;20014;-44
2022/06/26 10:21:12;;;;;;;9.10;5.28;;;;;;;23.43;90.28;101487.97;7398321;19;20030;-44
2022/06/26 10:23:43;;;;;;;7.45;5.30;;;;;;;23.69;89.51;101484.78;7397200;19;20022;-45
2022/06/26 10:26:16;;;;;;;6.72;4.78;;;;;;;23.38;88.98;101482.16;7397733;19;20018;-45
2022/06/26 10:28:59;;;;;;;9.85;6.03;;;;;;;23.58;86.02;101495.59;7396479;19;20018;-44
2022/06/26 10:31:32;;;;;;;8.40;5.07;;;;;;;23.83;91.58;101503.13;7398618;19;20380;-44
2022/06/26 10:34:16;;;;;;;8.45;6.07;;;;;;;23.89;90.09;101511.63;7397882;19;20617;-45
2022/06/26 10:36:45;;;;;;;8.30;5.53;;;;;;;22.98;90.93;101517.69;7398742;19;20018;-44
2022/06/26 10:39:14;;;;;;;8.80;6.03;;;;;;;23.64;91.14;101516.44;7396590;19;20452;-45
2022/06/26 10:44:37;;;;;;;10.70;6.32;;;;;;;23.90;91.72;101511.50;7397421;19;20018;-44
2022/06/26 10:47:18;;;;;;;9.70;5.75;;;;;;;23.94;88.11;101514.72;7399428;19;20014;-44
2022/06/26 10:49:55;;;;;;;10.13;6.10;;;;;;;23.80;87.85;101510.59;7398160;19;20018;-44
2022/06/26 10:52:32;;;;;;;8.88;5.38;;;;;;;23.59;83.44;101516.88;7400448;19;20017;-44
2022/06/26 10:55:02;;;;;;;6.25;4.65;;;;;;;24.21;80.84;101510.53;7396869;19;20018;-45
2022/06/26 10:57:37;;;;;;;8.40;5.10;;;;;;;23.71;86.03;101525.63;7397222;19;20014;-44
2022/06/26 11:00:10;;;;;;;8.65;5.45;;;;;;;23.83;85.74;101532.56;7393054;19;20094;-44
2022/06/26 11:02:44;;;;;;;8.23;5.93;;;;;;;23.65;87.18;101519.00;7396831;19;20547;-44
2022/06/26 11:05:14;;;;;;;11.52;6.38;;;;;;;23.88;91.49;101524.16;7394959;19;20018;-44
2022/06/26 11:07:49;;;;;;;7.97;5.68;;;;;;;24.02;86.17;101526.44;7396198;19;20025;-44
2022/06/26 11:10:20;;;;;;;9.73;6.25;;;;;;;24.11;89.64;101518.56;7395489;19;20008;-46
2022/06/26 11:12:50;;;;;;;10.68;6.03;;;;;;;24.35;86.95;101505.59;7396535;19;20011;-42
2022/06/26 11:15:31;;;;;;;7.90;5.40;;;;;;;24.17;84.59;101520.66;7393682;19;20010;-45
2022/06/26 11:18:05;;;;;;;8.88;5.40;;;;;;;23.77;87.81;101530.44;7395928;19;20086;-43
2022/06/26 11:20:56;;;;;;;9.40;5.30;;;;;;;24.35;84.70;101521.66;7393170;19;20010;-44
2022/06/26 11:23:27;;;;;;;8.57;4.60;;;;;;;24.18;86.69;101512.47;7396392;19;20081;-44
2022/06/26 11:25:57;;;;;;;9.20;5.32;;;;;;;24.13;84.14;101519.28;7396415;19;20011;-44
2022/06/26 11:28:31;;;;;;;6.85;4.20;;;;;;;23.52;79.53;101531.78;7395445;19;20015;-47
2022/06/26 11:31:01;;;;;;;6.03;3.75;;;;;;;23.94;85.75;101528.97;7395708;19;20021;-44
2022/06/26 11:33:34;;;;;;;7.20;4.20;;;;;;;24.14;83.44;101532.53;7395542;19;20470;-44
2022/06/26 11:36:06;;;;;;;6.50;4.78;;;;;;;23.82;82.83;101530.88;7394800;19;20022;-44
2022/06/26 11:38:35;;;;;;;5.38;4.78;;;;;;;23.89;83.77;101519.66;7394845;19;20022;-47
2022/06/26 11:41:06;;;;;;;6.90;4.32;;;;;;;23.30;83.60;101519.44;7393945;19;20010;-43
2022/06/26 11:43:36;;;;;;;8.15;5.30;;;;;;;23.44;88.89;101528.91;7394119;19;20018;-45